Time;durP1;ratioP1;P1;durP2;ratioP2;P2;SDS_P1;SDS_P2;PMS_P1;PMS_P2;Temp;Humidity;BMP_temperature;BMP_pressure;BME280_temperature;BME280_humidity;BME280_pressure;Samples;Min_cycle;Max_cycle;Signal;HPM_P1;HPM_P2
2022/07/11 04:02:53;;;;;;;1999.90;999.90;;;;;;;;;;6299570;22;20214;-71
2022/07/11 04:05:39;;;;;;;1999.90;999.90;;;;;;;;;;6304788;22;20319;-70
2022/07/11 04:08:24;;;;;;;1999.90;999.90;;;;;;;;;;6304567;22;20232;-68
2022/07/11 04:11:10;;;;;;;1999.90;999.90;;;;;;;;;;6293897;22;20208;-68
2022/07/11 04:13:56;;;;;;;1999.90;999.90;;;;;;;;;;6246827;22;20180;-70
2022/07/11 04:16:41;;;;;;;1999.90;999.90;;;;;;;;;;6273614;22;20160;-72
2022/07/11 04:19:27;;;;;;;1999.90;999.90;;;;;;;;;;6274372;22;20217;-73
2022/07/11 04:22:12;;;;;;;1999.90;999.90;;;;;;;;;;6274531;22;20218;-72
2022/07/11 04:24:57;;;;;;;1999.90;999.90;;;;;;;;;;6274529;22;20495;-71
2022/07/11 04:27:42;;;;;;;1999.90;999.90;;;;;;;;;;6274539;22;20167;-73
2022/07/11 04:30:27;;;;;;;1999.90;999.90;;;;;;;;;;6274531;22;20193;-73
2022/07/11 04:33:12;;;;;;;1999.90;999.90;;;;;;;;;;6273641;22;20172;-72
2022/07/11 04:35:58;;;;;;;1999.90;999.90;;;;;;;;;;6272986;22;20379;-72
2022/07/11 04:38:44;;;;;;;1999.90;999.90;;;;;;;;;;6273427;22;20563;-72
2022/07/11 04:41:29;;;;;;;1999.90;999.90;;;;;;;;;;6273797;22;20273;-72
2022/07/11 04:44:14;;;;;;;1999.90;999.90;;;;;;;;;;6274949;22;20207;-72
2022/07/11 04:46:59;;;;;;;1999.90;999.90;;;;;;;;;;6274862;22;20165;-72
2022/07/11 04:49:46;;;;;;;1999.90;999.90;;;;;;;;;;6274524;22;20168;-73
2022/07/11 04:52:33;;;;;;;1999.90;999.90;;;;;;;;;;6274605;22;20278;-72
2022/07/11 04:55:18;;;;;;;1999.90;999.90;;;;;;;;;;6274938;22;20501;-70
2022/07/11 04:58:03;;;;;;;1999.90;999.90;;;;;;;;;;6275000;22;20165;-72
2022/07/11 05:00:49;;;;;;;1999.90;999.90;;;;;;;;;;6276328;22;20239;-72
2022/07/11 05:03:34;;;;;;;1999.90;999.90;;;;;;;;;;6276595;22;20227;-72
2022/07/11 05:06:19;;;;;;;1999.90;999.90;;;;;;;;;;6276712;22;20169;-72
2022/07/11 05:09:07;;;;;;;1999.90;999.90;;;;;;;;;;6276170;22;20168;-72
2022/07/11 05:11:52;;;;;;;1999.90;999.90;;;;;;;;;;6276817;22;20242;-72
2022/07/11 05:14:37;;;;;;;1999.90;999.90;;;;;;;;;;6276633;22;20168;-72
2022/07/11 05:17:23;;;;;;;1999.90;999.90;;;;;;;;;;6276703;22;20226;-72
2022/07/11 05:20:09;;;;;;;1999.90;999.90;;;;;;;;;;6275055;22;20173;-69
2022/07/11 05:22:56;;;;;;;1999.90;999.90;;;;;;;;;;6275139;22;20169;-71
2022/07/11 05:25:42;;;;;;;1999.90;999.90;;;;;;;;;;6274582;22;20211;-72
2022/07/11 05:28:27;;;;;;;1999.90;999.90;;;;;;;;;;6274661;22;20168;-71
2022/07/11 05:31:12;;;;;;;1999.90;999.90;;;;;;;;;;6274769;22;20200;-72
2022/07/11 05:33:57;;;;;;;1999.90;999.90;;;;;;;;;;6274687;22;20236;-72
2022/07/11 05:36:43;;;;;;;1999.90;999.90;;;;;;;;;;6274959;22;20556;-72
2022/07/11 05:39:28;;;;;;;1999.90;999.90;;;;;;;;;;6274610;22;20504;-71
2022/07/11 05:42:15;;;;;;;1999.90;999.90;;;;;;;;;;6274801;22;20212;-72
2022/07/11 05:44:59;;;;;;;1999.90;999.90;;;;;;;;;;6275104;22;20168;-72
2022/07/11 05:47:44;;;;;;;1999.90;999.90;;;;;;;;;;6274832;22;20180;-72
2022/07/11 05:50:29;;;;;;;1999.90;999.90;;;;;;;;;;6274817;22;20575;-72
2022/07/11 05:53:14;;;;;;;1999.90;999.90;;;;;;;;;;6274794;22;20167;-72
2022/07/11 05:56:00;;;;;;;1999.90;999.90;;;;;;;;;;6275118;22;20254;-71
2022/07/11 05:58:46;;;;;;;1999.90;999.90;;;;;;;;;;6274287;22;20618;-73
2022/07/11 06:01:31;;;;;;;1999.90;999.90;;;;;;;;;;6272974;22;20448;-71
2022/07/11 06:04:16;;;;;;;1999.90;999.90;;;;;;;;;;6273472;22;20219;-73
2022/07/11 06:07:01;;;;;;;1999.90;999.90;;;;;;;;;;6275259;22;20501;-72
2022/07/11 06:09:46;;;;;;;1999.90;999.90;;;;;;;;;;6275070;22;20203;-73
2022/07/11 06:12:31;;;;;;;1999.90;999.90;;;;;;;;;;6275890;22;20242;-72
2022/07/11 06:15:17;;;;;;;1999.90;999.90;;;;;;;;;;6275898;22;20288;-71
2022/07/11 06:18:03;;;;;;;1999.90;999.90;;;;;;;;;;6273879;22;20361;-73
2022/07/11 06:20:48;;;;;;;1999.90;999.90;;;;;;;;;;6275659;22;20737;-72
2022/07/11 06:23:34;;;;;;;1999.90;999.90;;;;;;;;;;6275832;22;20167;-73
2022/07/11 06:26:19;;;;;;;1999.90;999.90;;;;;;;;;;6275764;22;20164;-72
2022/07/11 06:29:04;;;;;;;1999.90;999.90;;;;;;;;;;6275669;22;20214;-73
2022/07/11 06:31:50;;;;;;;1999.90;999.90;;;;;;;;;;6275759;22;20204;-72
2022/07/11 06:34:36;;;;;;;1999.90;999.90;;;;;;;;;;6275728;22;20507;-73
2022/07/11 06:37:22;;;;;;;1999.90;999.90;;;;;;;;;;6275960;22;20219;-73
2022/07/11 06:40:09;;;;;;;1999.90;999.90;;;;;;;;;;6275102;22;20168;-73
2022/07/11 06:42:55;;;;;;;1999.90;999.90;;;;;;;;;;6273108;22;20181;-72
2022/07/11 06:45:40;;;;;;;1999.90;999.90;;;;;;;;;;6272766;22;20238;-73
2022/07/11 06:48:27;;;;;;;1999.90;999.90;;;;;;;;;;6272141;22;20387;-72
2022/07/11 06:51:12;;;;;;;1999.90;999.90;;;;;;;;;;6272916;22;20200;-73
2022/07/11 06:53:57;;;;;;;1999.90;999.90;;;;;;;;;;6272165;22;20188;-72
2022/07/11 06:56:42;;;;;;;1999.90;999.90;;;;;;;;;;6272112;22;20168;-72
2022/07/11 06:59:27;;;;;;;1999.90;999.90;;;;;;;;;;6271796;22;20638;-72
2022/07/11 07:02:12;;;;;;;1999.90;999.90;;;;;;;;;;6272252;22;20766;-72
2022/07/11 07:04:58;;;;;;;1999.90;999.90;;;;;;;;;;6270910;22;20345;-72
2022/07/11 07:07:44;;;;;;;1999.90;999.90;;;;;;;;;;6273302;22;20167;-73
2022/07/11 07:10:29;;;;;;;1999.90;999.90;;;;;;;;;;6273132;22;20172;-73
2022/07/11 07:13:14;;;;;;;1999.90;999.90;;;;;;;;;;6273111;22;20164;-74
2022/07/11 07:15:59;;;;;;;1999.90;999.90;;;;;;;;;;6272523;22;20168;-71
2022/07/11 07:18:45;;;;;;;1999.90;999.90;;;;;;;;;;6272927;22;20211;-73
2022/07/11 07:21:31;;;;;;;1999.90;999.90;;;;;;;;;;6272968;22;20247;-72
2022/07/11 07:24:16;;;;;;;1999.90;999.90;;;;;;;;;;6273229;22;20215;-72
2022/07/11 07:27:01;;;;;;;1999.90;999.90;;;;;;;;;;6273050;22;20169;-72
2022/07/11 07:29:47;;;;;;;1999.90;999.90;;;;;;;;;;6273127;22;20224;-73
2022/07/11 07:32:32;;;;;;;1999.90;999.90;;;;;;;;;;6272440;22;20198;-73
2022/07/11 07:35:17;;;;;;;1999.90;999.90;;;;;;;;;;6272851;22;20172;-70
2022/07/11 07:38:04;;;;;;;1999.90;999.90;;;;;;;;;;6271649;22;20872;-72
2022/07/11 07:40:49;;;;;;;1999.90;999.90;;;;;;;;;;6272850;22;20211;-72
2022/07/11 07:43:34;;;;;;;1999.90;999.90;;;;;;;;;;6273289;22;20611;-73
2022/07/11 07:46:18;;;;;;;1999.90;999.90;;;;;;;;;;6272906;22;20171;-72
2022/07/11 07:49:04;;;;;;;1999.90;999.90;;;;;;;;;;6272013;22;20628;-72
2022/07/11 07:51:49;;;;;;;1999.90;999.90;;;;;;;;;;6271391;22;20572;-72
2022/07/11 07:54:35;;;;;;;1999.90;999.90;;;;;;;;;;6270975;22;20974;-72
2022/07/11 07:57:20;;;;;;;1999.90;999.90;;;;;;;;;;6272624;22;20508;-72
2022/07/11 08:03:09;;;;;;;1999.90;999.90;;;;;;;;;;6272700;22;20204;-71
2022/07/11 08:05:53;;;;;;;1999.90;999.90;;;;;;;;;;6273013;22;20298;-72
2022/07/11 08:08:38;;;;;;;1999.90;999.90;;;;;;;;;;6272519;22;20237;-73
2022/07/11 08:11:25;;;;;;;1999.90;999.90;;;;;;;;;;6272817;22;20279;-70
2022/07/11 08:14:10;;;;;;;1999.90;999.90;;;;;;;;;;6273090;22;20288;-73
2022/07/11 08:16:55;;;;;;;1999.90;999.90;;;;;;;;;;6272835;22;20639;-72
2022/07/11 08:19:40;;;;;;;1999.90;999.90;;;;;;;;;;6272053;22;20182;-70
2022/07/11 08:22:25;;;;;;;1999.90;999.90;;;;;;;;;;6272624;22;20206;-72
2022/07/11 08:25:10;;;;;;;1999.90;999.90;;;;;;;;;;6272725;22;20171;-72
2022/07/11 08:27:56;;;;;;;1999.90;999.90;;;;;;;;;;6272168;22;20454;-72
2022/07/11 08:30:41;;;;;;;1999.90;999.90;;;;;;;;;;6271390;22;20207;-71
2022/07/11 08:33:26;;;;;;;1999.90;999.90;;;;;;;;;;6271904;22;20252;-71
2022/07/11 08:36:11;;;;;;;1999.90;999.90;;;;;;;;;;6273262;22;20621;-72
2022/07/11 08:38:56;;;;;;;1999.90;999.90;;;;;;;;;;6273125;22;20168;-71
2022/07/11 08:41:43;;;;;;;1999.90;999.90;;;;;;;;;;6273296;22;20289;-72
2022/07/11 08:44:30;;;;;;;1999.90;999.90;;;;;;;;;;6272655;22;20379;-71
2022/07/11 08:47:15;;;;;;;1999.90;999.90;;;;;;;;;;6273213;22;20376;-71
2022/07/11 08:50:01;;;;;;;1999.90;999.90;;;;;;;;;;6272906;22;20502;-73
2022/07/11 08:52:46;;;;;;;1999.90;999.90;;;;;;;;;;6273501;22;20594;-72
2022/07/11 08:55:31;;;;;;;1999.90;999.90;;;;;;;;;;6273388;22;20167;-72
2022/07/11 08:58:17;;;;;;;1999.90;999.90;;;;;;;;;;6272976;22;20270;-72
2022/07/11 09:01:04;;;;;;;1999.90;999.90;;;;;;;;;;6273284;22;20692;-72
2022/07/11 09:03:50;;;;;;;1999.90;999.90;;;;;;;;;;6274133;22;20178;-72
2022/07/11 09:06:35;;;;;;;1999.90;999.90;;;;;;;;;;6272670;22;20214;-73
2022/07/11 09:09:20;;;;;;;1999.90;999.90;;;;;;;;;;6272716;22;20172;-72
2022/07/11 09:12:10;;;;;;;1999.90;999.90;;;;;;;;;;6273069;22;20202;-72
2022/07/11 09:14:56;;;;;;;1999.90;999.90;;;;;;;;;;6272928;22;20210;-72
2022/07/11 09:17:42;;;;;;;1999.90;999.90;;;;;;;;;;6273442;22;20379;-72
2022/07/11 09:25:19;;;;;;;1999.90;999.90;;;;;;;;;;6274500;22;20175;-72
2022/07/11 09:26:36;;;;;;;1999.90;999.90;;;;;;;;;;6273886;22;20234;-72
2022/07/11 09:29:24;;;;;;;1999.90;999.90;;;;;;;;;;6273916;22;20623;-72
2022/07/11 09:32:09;;;;;;;1999.90;999.90;;;;;;;;;;6274131;22;20674;-71
2022/07/11 09:35:01;;;;;;;1999.90;999.90;;;;;;;;;;6273198;22;20915;-72
2022/07/11 09:37:46;;;;;;;1999.90;999.90;;;;;;;;;;6273928;22;20163;-73
2022/07/11 09:40:31;;;;;;;1999.90;999.90;;;;;;;;;;6273359;22;20788;-72
2022/07/11 09:43:25;;;;;;;1999.90;999.90;;;;;;;;;;6274450;22;20311;-72
2022/07/11 09:46:10;;;;;;;1999.90;999.90;;;;;;;;;;6274319;22;20168;-72
2022/07/11 09:48:55;;;;;;;1999.90;999.90;;;;;;;;;;6273668;22;20769;-72
2022/07/11 09:51:42;;;;;;;1999.90;999.90;;;;;;;;;;6273964;22;20214;-71
2022/07/11 09:54:27;;;;;;;1999.90;999.90;;;;;;;;;;6274090;22;20228;-73
2022/07/11 09:57:12;;;;;;;1999.90;999.90;;;;;;;;;;6273994;22;20497;-72
2022/07/11 09:59:57;;;;;;;1999.90;999.90;;;;;;;;;;6273842;22;20171;-73
2022/07/11 10:02:42;;;;;;;1999.90;999.90;;;;;;;;;;6273875;22;20713;-73
2022/07/11 10:05:28;;;;;;;1999.90;999.90;;;;;;;;;;6274028;22;20171;-74
2022/07/11 10:08:14;;;;;;;1999.90;999.90;;;;;;;;;;6275978;22;20174;-71
2022/07/11 10:10:59;;;;;;;1999.90;999.90;;;;;;;;;;6276259;22;20285;-73
2022/07/11 10:13:45;;;;;;;1999.90;999.90;;;;;;;;;;6275410;22;20167;-71
2022/07/11 10:16:35;;;;;;;1999.90;999.90;;;;;;;;;;6275942;22;20175;-73
2022/07/11 10:19:35;;;;;;;1999.90;999.90;;;;;;;;;;6274560;22;20611;-71
2022/07/11 10:22:22;;;;;;;1999.90;999.90;;;;;;;;;;6274343;22;20206;-71
2022/07/11 10:25:13;;;;;;;1999.90;999.90;;;;;;;;;;6274262;22;20371;-70
2022/07/11 10:28:03;;;;;;;1999.90;999.90;;;;;;;;;;6273882;22;20168;-70
2022/07/11 10:30:49;;;;;;;1999.90;999.90;;;;;;;;;;6274198;22;20210;-71
2022/07/11 10:33:34;;;;;;;1999.90;999.90;;;;;;;;;;6273833;22;20180;-69
2022/07/11 10:36:26;;;;;;;1999.90;999.90;;;;;;;;;;6273821;22;20207;-70
2022/07/11 10:39:18;;;;;;;1999.90;999.90;;;;;;;;;;6273304;22;20163;-70
2022/07/11 10:42:05;;;;;;;1999.90;999.90;;;;;;;;;;6273441;22;20319;-70
2022/07/11 10:44:52;;;;;;;1999.90;999.90;;;;;;;;;;6273448;22;20168;-70
2022/07/11 10:47:41;;;;;;;1999.90;999.90;;;;;;;;;;6273526;22;20627;-70
2022/07/11 10:50:35;;;;;;;1999.90;999.90;;;;;;;;;;6273470;22;20172;-70
2022/07/11 10:53:21;;;;;;;1999.90;999.90;;;;;;;;;;6273453;22;20258;-70
2022/07/11 10:56:12;;;;;;;1999.90;999.90;;;;;;;;;;6273411;22;20183;-71
2022/07/11 10:59:03;;;;;;;1999.90;999.90;;;;;;;;;;6272939;22;20176;-69
2022/07/11 11:02:04;;;;;;;1999.90;999.90;;;;;;;;;;6273378;22;20744;-71
2022/07/11 11:04:50;;;;;;;1999.90;999.90;;;;;;;;;;6273274;22;20629;-72
2022/07/11 11:07:36;;;;;;;1999.90;999.90;;;;;;;;;;6273243;22;20164;-68
2022/07/11 11:10:52;;;;;;;1999.90;999.90;;;;;;;;;;6271961;22;20687;-70
2022/07/11 11:13:37;;;;;;;1999.90;999.90;;;;;;;;;;6273509;22;20550;-69
2022/07/11 11:16:24;;;;;;;1999.90;999.90;;;;;;;;;;6273219;22;20508;-69
2022/07/11 11:19:42;;;;;;;1999.90;999.90;;;;;;;;;;6272826;22;20172;-69
2022/07/11 11:22:28;;;;;;;1999.90;999.90;;;;;;;;;;6272972;22;20200;-70
2022/07/11 11:25:13;;;;;;;1999.90;999.90;;;;;;;;;;6273183;22;20172;-69
2022/07/11 11:28:04;;;;;;;1999.90;999.90;;;;;;;;;;6272391;22;20168;-71
2022/07/11 11:30:53;;;;;;;1999.90;999.90;;;;;;;;;;6272945;22;20254;-70
2022/07/11 11:33:39;;;;;;;1999.90;999.90;;;;;;;;;;6273224;22;20170;-69
2022/07/11 11:36:25;;;;;;;1999.90;999.90;;;;;;;;;;6273083;22;20233;-70
2022/07/11 11:39:10;;;;;;;1999.90;999.90;;;;;;;;;;6272743;22;20172;-70
2022/07/11 11:42:01;;;;;;;1999.90;999.90;;;;;;;;;;6272531;22;20375;-70
2022/07/11 11:44:51;;;;;;;1999.90;999.90;;;;;;;;;;6273172;22;20174;-71
2022/07/11 11:47:37;;;;;;;1999.90;999.90;;;;;;;;;;6273052;22;20170;-70
2022/07/11 11:50:23;;;;;;;1999.90;999.90;;;;;;;;;;6272391;22;20214;-70
2022/07/11 11:53:11;;;;;;;1999.90;999.90;;;;;;;;;;6273173;22;20171;-70
2022/07/11 11:55:56;;;;;;;1999.90;999.90;;;;;;;;;;6273251;22;20229;-71
2022/07/11 11:58:41;;;;;;;1999.90;999.90;;;;;;;;;;6272823;22;20241;-70
2022/07/11 12:01:27;;;;;;;1999.90;999.90;;;;;;;;;;6272921;22;20564;-71
2022/07/11 12:04:12;;;;;;;1999.90;999.90;;;;;;;;;;6270892;22;20723;-69
2022/07/11 12:07:01;;;;;;;1999.90;999.90;;;;;;;;;;6271529;22;20373;-69
2022/07/11 12:09:52;;;;;;;1999.90;999.90;;;;;;;;;;6273418;22;20171;-69
2022/07/11 12:12:47;;;;;;;1999.90;999.90;;;;;;;;;;6274372;22;20714;-69
2022/07/11 12:15:34;;;;;;;1999.90;999.90;;;;;;;;;;6274818;22;20169;-69
2022/07/11 12:18:20;;;;;;;1999.90;999.90;;;;;;;;;;6273374;22;20171;-69
2022/07/11 12:21:09;;;;;;;1999.90;999.90;;;;;;;;;;6274833;22;20200;-69
2022/07/11 12:23:56;;;;;;;1999.90;999.90;;;;;;;;;;6274756;22;20534;-69
2022/07/11 12:26:41;;;;;;;1999.90;999.90;;;;;;;;;;6275313;22;20167;-70
2022/07/11 12:29:28;;;;;;;1999.90;999.90;;;;;;;;;;6274451;22;20167;-69
2022/07/11 12:32:13;;;;;;;1999.90;999.90;;;;;;;;;;6274838;22;20774;-71
2022/07/11 12:34:58;;;;;;;1999.90;999.90;;;;;;;;;;6272956;22;20384;-70
2022/07/11 12:37:44;;;;;;;1999.90;999.90;;;;;;;;;;6273627;22;20171;-71
2022/07/11 12:40:30;;;;;;;1999.90;999.90;;;;;;;;;;6274191;22;20171;-70
2022/07/11 12:46:15;;;;;;;1999.90;999.90;;;;;;;;;;6273174;22;20184;-71
2022/07/11 12:49:03;;;;;;;1999.90;999.90;;;;;;;;;;6272904;22;20175;-71
2022/07/11 12:51:48;;;;;;;1999.90;999.90;;;;;;;;;;6272211;22;20383;-71
2022/07/11 12:54:34;;;;;;;1999.90;999.90;;;;;;;;;;6273130;22;20168;-71
2022/07/11 12:57:21;;;;;;;1999.90;999.90;;;;;;;;;;6273538;22;20558;-71
2022/07/11 13:00:16;;;;;;;1999.90;999.90;;;;;;;;;;6272715;22;20168;-71
2022/07/11 13:03:01;;;;;;;1999.90;999.90;;;;;;;;;;6273522;22;20188;-71
2022/07/11 13:05:47;;;;;;;1999.90;999.90;;;;;;;;;;6272953;22;20203;-71
2022/07/11 13:08:47;;;;;;;1999.90;999.90;;;;;;;;;;6273223;22;20496;-71
2022/07/11 13:11:32;;;;;;;1999.90;999.90;;;;;;;;;;6273186;22;20202;-71
2022/07/11 13:17:21;;;;;;;1999.90;999.90;;;;;;;;;;6274047;22;20627;-71
2022/07/11 13:20:07;;;;;;;1999.90;999.90;;;;;;;;;;6273435;22;20215;-71
2022/07/11 13:22:53;;;;;;;1999.90;999.90;;;;;;;;;;6273558;22;20226;-70
2022/07/11 13:25:38;;;;;;;1999.90;999.90;;;;;;;;;;6272387;22;21152;-71
2022/07/11 13:28:23;;;;;;;1999.90;999.90;;;;;;;;;;6271983;22;20509;-71
2022/07/11 13:31:10;;;;;;;1999.90;999.90;;;;;;;;;;6274179;22;20252;-71
2022/07/11 13:33:57;;;;;;;1999.90;999.90;;;;;;;;;;6274146;22;20169;-71
2022/07/11 13:36:42;;;;;;;1999.90;999.90;;;;;;;;;;6274248;22;20168;-70
2022/07/11 13:39:27;;;;;;;1999.90;999.90;;;;;;;;;;6273943;22;20174;-71
2022/07/11 13:42:12;;;;;;;1999.90;999.90;;;;;;;;;;6272413;22;20371;-71
2022/07/11 13:44:57;;;;;;;1999.90;999.90;;;;;;;;;;6274135;22;20163;-70
2022/07/11 13:47:43;;;;;;;1999.90;999.90;;;;;;;;;;6273894;22;20181;-70
2022/07/11 13:50:28;;;;;;;1999.90;999.90;;;;;;;;;;6273666;22;20169;-71
2022/07/11 13:53:13;;;;;;;1999.90;999.90;;;;;;;;;;6273852;22;20163;-71
2022/07/11 13:55:58;;;;;;;1999.90;999.90;;;;;;;;;;6274120;22;20787;-70
2022/07/11 13:58:43;;;;;;;1999.90;999.90;;;;;;;;;;6273619;22;20239;-71
2022/07/11 14:01:27;;;;;;;1999.90;999.90;;;;;;;;;;6273821;22;20290;-71
2022/07/11 14:04:14;;;;;;;1999.90;999.90;;;;;;;;;;6274180;22;20191;-71
2022/07/11 14:06:59;;;;;;;1999.90;999.90;;;;;;;;;;6274109;22;20677;-71
2022/07/11 14:09:44;;;;;;;1999.90;999.90;;;;;;;;;;6273953;22;20264;-70
2022/07/11 14:12:30;;;;;;;1999.90;999.90;;;;;;;;;;6273556;22;20206;-71
2022/07/11 14:15:16;;;;;;;1999.90;999.90;;;;;;;;;;6273111;22;20422;-70
2022/07/11 14:18:00;;;;;;;1999.90;999.90;;;;;;;;;;6272402;22;20175;-70
2022/07/11 14:20:47;;;;;;;1999.90;999.90;;;;;;;;;;6272460;22;20279;-71
2022/07/11 14:23:31;;;;;;;1999.90;999.90;;;;;;;;;;6272299;22;20651;-71
2022/07/11 14:26:17;;;;;;;1999.90;999.90;;;;;;;;;;6272906;22;20182;-70
2022/07/11 14:29:03;;;;;;;1999.90;999.90;;;;;;;;;;6272179;22;20210;-70
2022/07/11 14:31:48;;;;;;;1999.90;999.90;;;;;;;;;;6271760;22;20230;-70
2022/07/11 14:34:33;;;;;;;1999.90;999.90;;;;;;;;;;6272504;22;20166;-71
2022/07/11 14:37:19;;;;;;;1999.90;999.90;;;;;;;;;;6272276;22;20187;-70
2022/07/11 14:40:04;;;;;;;1999.90;999.90;;;;;;;;;;6272183;22;20241;-71
2022/07/11 14:42:50;;;;;;;1999.90;999.90;;;;;;;;;;6272157;22;20634;-72
2022/07/11 14:45:35;;;;;;;1999.90;999.90;;;;;;;;;;6272130;22;20175;-71
2022/07/11 14:48:20;;;;;;;1999.90;999.90;;;;;;;;;;6271230;22;20184;-71
2022/07/11 14:51:05;;;;;;;1999.90;999.90;;;;;;;;;;6273357;22;20215;-71
2022/07/11 14:53:51;;;;;;;1999.90;999.90;;;;;;;;;;6273237;22;20503;-72
2022/07/11 14:56:37;;;;;;;1999.90;999.90;;;;;;;;;;6273168;22;20234;-71
2022/07/11 14:59:21;;;;;;;1999.90;999.90;;;;;;;;;;6272826;22;20176;-71
2022/07/11 15:02:07;;;;;;;1999.90;999.90;;;;;;;;;;6272944;22;20215;-71
2022/07/11 15:04:52;;;;;;;1999.90;999.90;;;;;;;;;;6273188;22;20281;-71
2022/07/11 15:13:44;;;;;;;1999.90;999.90;;;;;;;;;;6273270;22;20160;-71
2022/07/11 15:16:30;;;;;;;1999.90;999.90;;;;;;;;;;6272790;22;20174;-70
2022/07/11 15:19:14;;;;;;;1999.90;999.90;;;;;;;;;;6272202;22;20173;-71
2022/07/11 15:21:59;;;;;;;1999.90;999.90;;;;;;;;;;6273206;22;20697;-71
2022/07/11 15:24:44;;;;;;;1999.90;999.90;;;;;;;;;;6272479;22;20192;-72
2022/07/11 15:27:31;;;;;;;1999.90;999.90;;;;;;;;;;6272974;22;20164;-71
2022/07/11 15:30:16;;;;;;;1999.90;999.90;;;;;;;;;;6271393;22;20407;-71
2022/07/11 15:33:01;;;;;;;1999.90;999.90;;;;;;;;;;6272833;22;20832;-71
2022/07/11 15:35:48;;;;;;;1999.90;999.90;;;;;;;;;;6273215;22;20171;-71
2022/07/11 15:38:33;;;;;;;1999.90;999.90;;;;;;;;;;6272481;22;20168;-71
2022/07/11 15:41:18;;;;;;;1999.90;999.90;;;;;;;;;;6271955;22;20247;-71
2022/07/11 15:44:05;;;;;;;1999.90;999.90;;;;;;;;;;6271424;22;20198;-71
2022/07/11 15:46:50;;;;;;;1999.90;999.90;;;;;;;;;;6271736;22;20211;-70
2022/07/11 15:49:35;;;;;;;1999.90;999.90;;;;;;;;;;6271329;22;20180;-71
2022/07/11 15:52:20;;;;;;;1999.90;999.90;;;;;;;;;;6271883;22;20200;-71
2022/07/11 15:55:05;;;;;;;1999.90;999.90;;;;;;;;;;6271761;22;20208;-70
2022/07/11 15:57:50;;;;;;;1999.90;999.90;;;;;;;;;;6271435;22;20213;-69
2022/07/11 16:00:37;;;;;;;1999.90;999.90;;;;;;;;;;6272422;22;20612;-71
2022/07/11 16:03:21;;;;;;;1999.90;999.90;;;;;;;;;;6272146;22;20201;-71
2022/07/11 16:06:06;;;;;;;1999.90;999.90;;;;;;;;;;6272231;22;20210;-70
2022/07/11 16:08:52;;;;;;;1999.90;999.90;;;;;;;;;;6274816;22;20282;-72
2022/07/11 16:11:37;;;;;;;1999.90;999.90;;;;;;;;;;6275031;22;20205;-71
2022/07/11 16:14:22;;;;;;;1999.90;999.90;;;;;;;;;;6273373;22;20257;-70
2022/07/11 16:17:09;;;;;;;1999.90;999.90;;;;;;;;;;6272313;22;20380;-70
2022/07/11 16:19:56;;;;;;;1999.90;999.90;;;;;;;;;;6270883;22;20185;-71
2022/07/11 16:22:41;;;;;;;1999.90;999.90;;;;;;;;;;6271314;22;20694;-71
2022/07/11 16:25:28;;;;;;;1999.90;999.90;;;;;;;;;;6272513;22;20204;-71
2022/07/11 16:28:13;;;;;;;1999.90;999.90;;;;;;;;;;6272106;22;20254;-71
2022/07/11 16:30:58;;;;;;;1999.90;999.90;;;;;;;;;;6272074;22;20201;-71
2022/07/11 16:33:44;;;;;;;1999.90;999.90;;;;;;;;;;6272235;22;20169;-71
2022/07/11 16:36:29;;;;;;;1999.90;999.90;;;;;;;;;;6272466;22;20168;-71
2022/07/11 16:45:19;;;;;;;1999.90;999.90;;;;;;;;;;6272060;22;20241;-71
2022/07/11 16:48:05;;;;;;;1999.90;999.90;;;;;;;;;;6272107;22;20193;-70
2022/07/11 16:50:52;;;;;;;1999.90;999.90;;;;;;;;;;6270239;22;20380;-71
2022/07/11 16:53:37;;;;;;;1999.90;999.90;;;;;;;;;;6272522;22;20186;-69
2022/07/11 16:56:22;;;;;;;1999.90;999.90;;;;;;;;;;6274604;22;20225;-71
2022/07/11 16:59:07;;;;;;;1999.90;999.90;;;;;;;;;;6274120;22;20212;-71
2022/07/11 17:01:52;;;;;;;1999.90;999.90;;;;;;;;;;6272970;22;20589;-71
2022/07/11 17:04:38;;;;;;;1999.90;999.90;;;;;;;;;;6273473;22;20193;-71
2022/07/11 17:07:24;;;;;;;1999.90;999.90;;;;;;;;;;6272470;22;20453;-71
2022/07/11 17:10:09;;;;;;;1999.90;999.90;;;;;;;;;;6274389;22;20165;-71
2022/07/11 17:12:54;;;;;;;1999.90;999.90;;;;;;;;;;6273826;22;20666;-72
2022/07/11 17:15:39;;;;;;;1999.90;999.90;;;;;;;;;;6274534;22;20164;-71
2022/07/11 17:18:24;;;;;;;1999.90;999.90;;;;;;;;;;6273920;22;20165;-71
2022/07/11 17:21:09;;;;;;;1999.90;999.90;;;;;;;;;;6274871;22;20204;-71
2022/07/11 17:23:55;;;;;;;1999.90;999.90;;;;;;;;;;6274386;22;20314;-71
2022/07/11 17:26:41;;;;;;;1999.90;999.90;;;;;;;;;;6274405;22;20678;-71
2022/07/11 17:29:26;;;;;;;1999.90;999.90;;;;;;;;;;6274036;22;20168;-71
2022/07/11 17:32:10;;;;;;;1999.90;999.90;;;;;;;;;;6274457;22;20278;-71
2022/07/11 17:34:56;;;;;;;1999.90;999.90;;;;;;;;;;6274356;22;20184;-71
2022/07/11 17:37:40;;;;;;;1999.90;999.90;;;;;;;;;;6274328;22;20252;-72
2022/07/11 17:40:27;;;;;;;1999.90;999.90;;;;;;;;;;6273164;22;20851;-71
2022/07/11 17:43:12;;;;;;;1999.90;999.90;;;;;;;;;;6274104;22;20173;-71
2022/07/11 17:45:57;;;;;;;1999.90;999.90;;;;;;;;;;6274487;22;20169;-71
2022/07/11 17:48:41;;;;;;;1999.90;999.90;;;;;;;;;;6273930;22;20169;-71
2022/07/11 17:51:26;;;;;;;1999.90;999.90;;;;;;;;;;6274337;22;20590;-71
2022/07/11 17:54:12;;;;;;;1999.90;999.90;;;;;;;;;;6273851;22;20164;-71
2022/07/11 17:56:58;;;;;;;1999.90;999.90;;;;;;;;;;6273994;22;20383;-70
2022/07/11 17:59:43;;;;;;;1999.90;999.90;;;;;;;;;;6273674;22;20219;-72
2022/07/11 18:02:28;;;;;;;1999.90;999.90;;;;;;;;;;6274176;22;20220;-72
2022/07/11 18:05:13;;;;;;;1999.90;999.90;;;;;;;;;;6273149;22;20195;-72
2022/07/11 18:07:59;;;;;;;1999.90;999.90;;;;;;;;;;6273787;22;20168;-70
2022/07/11 18:10:43;;;;;;;1999.90;999.90;;;;;;;;;;6274424;22;20207;-72
2022/07/11 18:13:30;;;;;;;1999.90;999.90;;;;;;;;;;6273430;22;20203;-72
2022/07/11 18:16:15;;;;;;;1999.90;999.90;;;;;;;;;;6275487;22;20229;-72
2022/07/11 18:18:59;;;;;;;1999.90;999.90;;;;;;;;;;6274221;22;20212;-73
2022/07/11 18:21:44;;;;;;;1999.90;999.90;;;;;;;;;;6274038;22;20228;-72
2022/07/11 18:24:33;;;;;;;1999.90;999.90;;;;;;;;;;6274624;22;20192;-71
2022/07/11 18:27:18;;;;;;;1999.90;999.90;;;;;;;;;;6273728;22;20176;-72
2022/07/11 18:30:06;;;;;;;1999.90;999.90;;;;;;;;;;6272961;22;20869;-71
2022/07/11 18:32:51;;;;;;;1999.90;999.90;;;;;;;;;;6274022;22;20259;-72
2022/07/11 18:35:36;;;;;;;1999.90;999.90;;;;;;;;;;6272970;22;20496;-72
2022/07/11 18:38:21;;;;;;;1999.90;999.90;;;;;;;;;;6273339;22;20167;-72
2022/07/11 18:41:15;;;;;;;1999.90;999.90;;;;;;;;;;6272593;22;20243;-71
2022/07/11 18:44:03;;;;;;;1999.90;999.90;;;;;;;;;;6273194;22;20242;-71
2022/07/11 18:46:49;;;;;;;1999.90;999.90;;;;;;;;;;6272597;22;20369;-71
2022/07/11 18:49:35;;;;;;;1999.90;999.90;;;;;;;;;;6272467;22;20250;-71
2022/07/11 18:52:23;;;;;;;1999.90;999.90;;;;;;;;;;6272924;22;20203;-71
2022/07/11 18:55:08;;;;;;;1999.90;999.90;;;;;;;;;;6273127;22;20165;-71
2022/07/11 18:57:53;;;;;;;1999.90;999.90;;;;;;;;;;6273139;22;20172;-71
2022/07/11 19:00:40;;;;;;;1999.90;999.90;;;;;;;;;;6272799;22;20626;-71
2022/07/11 19:03:26;;;;;;;1999.90;999.90;;;;;;;;;;6273445;22;20626;-71
2022/07/11 19:06:11;;;;;;;1999.90;999.90;;;;;;;;;;6273296;22;20163;-71
2022/07/11 19:08:56;;;;;;;1999.90;999.90;;;;;;;;;;6272848;22;20577;-71
2022/07/11 19:11:41;;;;;;;1999.90;999.90;;;;;;;;;;6273279;22;20200;-71
2022/07/11 19:14:26;;;;;;;1999.90;999.90;;;;;;;;;;6274033;22;20203;-71
2022/07/11 19:17:11;;;;;;;1999.90;999.90;;;;;;;;;;6274503;22;20247;-71
2022/07/11 19:19:57;;;;;;;1999.90;999.90;;;;;;;;;;6274144;22;20376;-71
2022/07/11 19:22:42;;;;;;;1999.90;999.90;;;;;;;;;;6275205;22;20211;-71
2022/07/11 19:25:27;;;;;;;1999.90;999.90;;;;;;;;;;6274616;22;20292;-71
2022/07/11 19:28:13;;;;;;;1999.90;999.90;;;;;;;;;;6275026;22;20234;-71
2022/07/11 19:30:58;;;;;;;1999.90;999.90;;;;;;;;;;6275183;22;20258;-71
2022/07/11 19:33:43;;;;;;;1999.90;999.90;;;;;;;;;;6275166;22;20172;-71
2022/07/11 19:36:31;;;;;;;1999.90;999.90;;;;;;;;;;6274568;22;20845;-71
2022/07/11 19:39:16;;;;;;;1999.90;999.90;;;;;;;;;;6274695;22;20239;-71
2022/07/11 19:42:01;;;;;;;1999.90;999.90;;;;;;;;;;6275173;22;20203;-71
2022/07/11 19:44:46;;;;;;;1999.90;999.90;;;;;;;;;;6273710;22;20269;-71
2022/07/11 19:47:32;;;;;;;1999.90;999.90;;;;;;;;;;6275146;22;20195;-72
2022/07/11 19:50:17;;;;;;;1999.90;999.90;;;;;;;;;;6274995;22;20677;-71
2022/07/11 19:53:03;;;;;;;1999.90;999.90;;;;;;;;;;6274125;22;20226;-71